Time;durP1;ratioP1;P1;durP2;ratioP2;P2;SDS_P1;SDS_P2;PMS_P1;PMS_P2;Temp;Humidity;BMP_temperature;BMP_pressure;BME280_temperature;BME280_humidity;BME280_pressure;Samples;Min_cycle;Max_cycle;Signal;HPM_P1;HPM_P2
2022/07/29 02:12:38;;;;;;;4.35;2.90;;;;;;;20.34;nan;-24382.78;5048760;28;20228;-62
2022/07/29 02:15:06;;;;;;;4.28;2.85;;;;;;;21.04;nan;-24402.06;5065666;28;20192;-62
2022/07/29 02:17:45;;;;;;;4.43;3.20;;;;;;;20.89;nan;-24397.91;5064335;28;20177;-63
2022/07/29 02:20:12;;;;;;;4.50;3.15;;;;;;;21.21;nan;-24406.50;5065251;28;20185;-62
2022/07/29 02:22:39;;;;;;;6.05;3.05;;;;;;;21.14;nan;-24404.69;5066723;28;20182;-61
2022/07/29 02:25:07;;;;;;;4.80;2.92;;;;;;;20.73;nan;-24393.59;5066120;28;20522;-61
2022/07/29 02:27:34;;;;;;;5.28;3.05;;;;;;;20.58;nan;-24389.28;5068638;28;20177;-61
2022/07/29 02:30:03;;;;;;;4.80;3.08;;;;;;;20.87;nan;-24397.34;5066040;28;20216;-62
2022/07/29 02:32:29;;;;;;;4.00;2.90;;;;;;;20.65;nan;-24391.22;5066118;28;20249;-62
2022/07/29 02:34:56;;;;;;;4.25;2.97;;;;;;;16.90;nan;-24288.06;5065873;28;20547;-62
2022/07/29 02:37:24;;;;;;;5.03;2.92;;;;;;;20.73;nan;-24393.59;5065831;28;20242;-62
2022/07/29 02:39:53;;;;;;;5.43;3.22;;;;;;;20.55;nan;-24388.59;5066233;28;20542;-62
2022/07/29 02:42:21;;;;;;;4.15;2.90;;;;;;;20.41;nan;-24384.56;5065631;28;20297;-61
2022/07/29 02:44:47;;;;;;;4.80;3.10;;;;;;;20.31;nan;-24381.94;5066266;28;21274;-61
2022/07/29 02:47:19;;;;;;;4.22;2.90;;;;;;;20.24;nan;-24380.00;5066515;28;21522;-62
2022/07/29 02:49:59;;;;;;;5.05;3.15;;;;;;;20.46;nan;-24385.97;5067529;28;20189;-62
2022/07/29 02:52:47;;;;;;;5.25;3.60;;;;;;;20.24;nan;-24380.13;5066046;28;20671;-62
2022/07/29 02:55:36;;;;;;;4.55;3.22;;;;;;;20.20;nan;-24379.00;5065956;28;20583;-62
2022/07/29 02:58:07;;;;;;;6.57;3.50;;;;;;;20.21;nan;-24379.28;5061561;28;20255;-61
2022/07/29 03:00:37;;;;;;;6.20;3.38;;;;;;;20.22;nan;-24379.56;5068992;28;20554;-61
2022/07/29 03:03:07;;;;;;;5.22;3.38;;;;;;;20.25;nan;-24380.41;5064669;28;20662;-62
2022/07/29 03:05:33;;;;;;;5.80;3.88;;;;;;;20.07;nan;-24375.25;5067827;28;20189;-61
2022/07/29 03:08:02;;;;;;;10.48;3.65;;;;;;;20.08;nan;-24375.69;5063793;28;20508;-62
2022/07/29 03:10:29;;;;;;;5.28;3.53;;;;;;;20.05;nan;-24374.84;5066841;28;20585;-61
2022/07/29 03:12:56;;;;;;;4.95;3.38;;;;;;;20.36;nan;-24383.31;5072133;28;20222;-61
2022/07/29 03:15:21;;;;;;;5.15;3.38;;;;;;;20.35;nan;-24382.91;5069795;28;20272;-61
2022/07/29 03:17:47;;;;;;;5.72;3.80;;;;;;;17.53;nan;-24305.34;5067145;28;20172;-62
2022/07/29 03:20:13;;;;;;;6.32;3.28;;;;;;;20.38;nan;-24383.75;5068858;28;20178;-62
2022/07/29 03:22:43;;;;;;;6.50;3.47;;;;;;;20.64;nan;-24391.09;5065250;28;20246;-62
2022/07/29 03:25:13;;;;;;;6.25;3.80;;;;;;;21.06;nan;-24402.59;5068861;28;20173;-62
2022/07/29 03:27:39;;;;;;;4.13;3.13;;;;;;;21.47;nan;-24413.69;5065256;28;20621;-62
2022/07/29 03:30:06;;;;;;;5.65;4.10;;;;;;;21.92;nan;-24426.03;5066114;28;20170;-62
2022/07/29 03:32:31;;;;;;;5.97;3.65;;;;;;;21.78;nan;-24422.28;5066720;28;20236;-62
2022/07/29 03:34:57;;;;;;;3.83;3.10;;;;;;;22.24;nan;-24434.88;5061718;28;20315;-61
2022/07/29 03:37:23;;;;;;;7.75;3.65;;;;;;;22.24;nan;-24434.75;5064460;28;20166;-61
2022/07/29 03:39:51;;;;;;;7.50;3.88;;;;;;;22.72;nan;-24448.03;5065224;28;20201;-62
2022/07/29 03:42:20;;;;;;;5.45;3.50;;;;;;;23.67;nan;-24473.88;5064677;28;20174;-61
2022/07/29 03:44:48;;;;;;;5.57;3.80;;;;;;;24.17;nan;-24487.53;5059352;28;20189;-62
2022/07/29 03:47:16;;;;;;;6.35;4.05;;;;;;;24.38;nan;-24493.31;5061144;28;20186;-61
2022/07/29 03:49:42;;;;;;;5.45;3.60;;;;;;;24.85;nan;-24506.13;5062947;28;20182;-62
2022/07/29 03:52:08;;;;;;;4.88;3.40;;;;;;;25.55;nan;-24525.00;5066094;28;20227;-61
2022/07/29 03:54:34;;;;;;;6.22;3.70;;;;;;;25.96;nan;-24536.28;5070946;28;20176;-62
2022/07/29 03:57:00;;;;;;;7.55;4.07;;;;;;;;;;5071608;28;20767;-62
2022/07/29 03:59:27;;;;;;;5.95;3.60;;;;;;;26.82;nan;-24559.75;5071792;28;20291;-62
2022/07/29 04:01:55;;;;;;;4.78;3.17;;;;;;;27.51;nan;-24578.41;5068975;28;20239;-62
2022/07/29 04:04:21;;;;;;;6.65;3.60;;;;;;;27.90;nan;-24588.97;5072769;28;20178;-62
2022/07/29 04:06:47;;;;;;;5.20;3.65;;;;;;;28.19;nan;-24596.63;5070351;28;20170;-59
2022/07/29 04:09:13;;;;;;;5.57;3.80;;;;;;;28.73;nan;-24611.41;5067923;28;20200;-62
2022/07/29 04:11:40;;;;;;;4.68;3.40;;;;;;;29.25;nan;-24625.47;5071007;28;20200;-59
2022/07/29 04:14:06;;;;;;;6.32;3.50;;;;;;;29.48;nan;-24631.50;5071276;28;20236;-62
2022/07/29 04:16:32;;;;;;;4.53;3.10;;;;;;;29.50;nan;-24632.03;5074625;28;20173;-60
2022/07/29 04:18:58;;;;;;;5.70;3.78;;;;;;;30.06;nan;-24647.19;5073007;28;20189;-60
2022/07/29 04:21:24;;;;;;;4.22;3.20;;;;;;;29.86;nan;-24641.84;5070504;28;20282;-60
2022/07/29 04:23:49;;;;;;;8.30;3.70;;;;;;;30.57;nan;-24660.94;5072997;28;20308;-60
2022/07/29 04:26:19;;;;;;;5.25;3.67;;;;;;;30.49;nan;-24658.78;5072070;28;20241;-60
2022/07/29 04:28:45;;;;;;;7.13;3.58;;;;;;;30.92;nan;-24670.47;5068774;28;20192;-59
2022/07/29 04:31:12;;;;;;;5.82;3.80;;;;;;;31.22;nan;-24678.38;5070169;28;20190;-61
2022/07/29 04:33:38;;;;;;;5.20;3.70;;;;;;;31.10;nan;-24675.25;5071608;28;20173;-61
2022/07/29 04:36:04;;;;;;;5.22;3.67;;;;;;;30.90;nan;-24669.78;5071793;28;20192;-61
2022/07/29 04:38:29;;;;;;;7.93;3.50;;;;;;;31.15;nan;-24676.59;5072919;28;20615;-61
2022/07/29 04:40:54;;;;;;;6.68;3.75;;;;;;;31.15;nan;-24676.59;5075045;28;20211;-60
2022/07/29 04:43:20;;;;;;;6.05;3.83;;;;;;;31.17;nan;-24677.16;5071078;28;20557;-61
2022/07/29 04:45:45;;;;;;;6.07;3.80;;;;;;;31.39;nan;-24683.13;5071731;28;20272;-60
2022/07/29 04:48:11;;;;;;;6.05;3.65;;;;;;;30.98;nan;-24671.97;5071039;28;20296;-61
2022/07/29 04:50:40;;;;;;;7.18;4.00;;;;;;;30.62;nan;-24662.44;5072406;28;20558;-60
2022/07/29 04:53:06;;;;;;;5.53;3.60;;;;;;;30.50;nan;-24659.03;5071126;28;20707;-61
2022/07/29 04:55:31;;;;;;;5.20;3.38;;;;;;;29.84;nan;-24641.44;5070049;28;20232;-60
2022/07/29 04:57:56;;;;;;;6.28;3.60;;;;;;;29.50;nan;-24632.19;5072307;28;20644;-60
2022/07/29 05:00:23;;;;;;;5.00;3.47;;;;;;;29.38;nan;-24628.91;5073340;28;20193;-60
2022/07/29 05:02:49;;;;;;;5.72;3.85;;;;;;;29.32;nan;-24627.41;5073671;28;20281;-61
2022/07/29 05:05:14;;;;;;;5.38;3.33;;;;;;;29.10;nan;-24621.38;5073855;28;20213;-60
2022/07/29 05:07:40;;;;;;;6.57;3.92;;;;;;;29.02;nan;-24619.06;5071977;28;20270;-60
2022/07/29 05:10:06;;;;;;;5.38;3.78;;;;;;;28.80;nan;-24613.19;5075031;28;20182;-60
2022/07/29 05:12:31;;;;;;;6.68;3.50;;;;;;;27.92;nan;-24589.38;5074979;28;20779;-60
2022/07/29 05:14:56;;;;;;;6.07;3.60;;;;;;;29.09;nan;-24621.09;5074033;28;20541;-61
2022/07/29 05:17:22;;;;;;;4.97;3.33;;;;;;;29.65;nan;-24636.25;5071991;28;20174;-61
2022/07/29 05:19:48;;;;;;;4.70;3.60;;;;;;;29.13;nan;-24622.19;5072800;28;20205;-59
2022/07/29 05:22:13;;;;;;;6.55;3.85;;;;;;;29.64;nan;-24635.84;5071588;28;20173;-59
2022/07/29 05:24:38;;;;;;;6.60;4.05;;;;;;;29.25;nan;-24625.47;5074640;28;20173;-60
2022/07/29 05:27:04;;;;;;;8.45;3.97;;;;;;;28.85;nan;-24614.69;5075689;28;20190;-60
2022/07/29 05:29:29;;;;;;;4.72;3.60;;;;;;;28.84;nan;-24614.41;5073053;28;20632;-60
2022/07/29 05:31:55;;;;;;;4.80;3.53;;;;;;;28.40;nan;-24602.50;5076804;28;20182;-60
2022/07/29 05:34:20;;;;;;;5.15;3.90;;;;;;;27.62;nan;-24581.44;5075418;28;20223;-60
2022/07/29 05:36:46;;;;;;;5.93;3.60;;;;;;;27.72;nan;-24584.03;5075911;28;20178;-60
2022/07/29 05:39:12;;;;;;;7.70;3.75;;;;;;;27.75;nan;-24584.84;5074690;28;20229;-60
2022/07/29 05:41:38;;;;;;;5.60;3.80;;;;;;;27.48;nan;-24577.59;5074273;28;20190;-60
2022/07/29 05:44:04;;;;;;;6.20;3.53;;;;;;;26.98;nan;-24563.88;5073858;28;21086;-66
2022/07/29 05:46:29;;;;;;;4.90;3.40;;;;;;;26.60;nan;-24553.59;5075046;28;20231;-66
2022/07/29 05:48:55;;;;;;;7.53;3.50;;;;;;;26.87;nan;-24561.00;5074600;28;20181;-66
2022/07/29 05:51:20;;;;;;;7.03;3.60;;;;;;;24.72;nan;-24502.41;5076785;28;20226;-65
2022/07/29 05:53:46;;;;;;;6.00;4.22;;;;;;;26.57;nan;-24552.75;5078429;28;20181;-66
2022/07/29 05:56:11;;;;;;;7.45;3.80;;;;;;;26.61;nan;-24554.00;5075664;28;20174;-65
2022/07/29 05:58:37;;;;;;;6.35;3.90;;;;;;;26.48;nan;-24550.28;5072474;28;20201;-66
2022/07/29 06:01:03;;;;;;;4.90;3.83;;;;;;;26.60;nan;-24553.72;5072914;28;20178;-65
2022/07/29 06:03:28;;;;;;;5.72;4.32;;;;;;;26.90;nan;-24561.69;5075433;28;20184;-67
2022/07/29 06:05:54;;;;;;;6.75;4.45;;;;;;;26.58;nan;-24553.19;5074688;28;20261;-65
2022/07/29 06:08:19;;;;;;;6.38;4.28;;;;;;;26.17;nan;-24542.03;5074792;28;20174;-65
2022/07/29 06:10:48;;;;;;;6.30;4.80;;;;;;;27.33;nan;-24573.34;5077119;28;20540;-68
2022/07/29 06:13:15;;;;;;;5.80;4.28;;;;;;;27.36;nan;-24574.16;5073846;28;20585;-65
2022/07/29 06:15:41;;;;;;;10.50;4.20;;;;;;;27.44;nan;-24576.50;5077032;28;20200;-66
2022/07/29 06:18:09;;;;;;;5.47;4.22;;;;;;;27.70;nan;-24583.47;5075219;28;20184;-67
2022/07/29 06:20:34;;;;;;;7.13;4.22;;;;;;;27.62;nan;-24581.44;5073286;28;20162;-65
2022/07/29 06:23:00;;;;;;;6.30;4.22;;;;;;;27.52;nan;-24578.56;5077519;28;20583;-66
2022/07/29 06:25:26;;;;;;;5.82;4.07;;;;;;;27.10;nan;-24567.31;5074602;28;20177;-64
2022/07/29 06:27:52;;;;;;;7.00;3.88;;;;;;;27.38;nan;-24574.72;5075120;28;20611;-65
2022/07/29 06:30:18;;;;;;;6.95;4.32;;;;;;;27.25;nan;-24571.41;5076405;28;20625;-64
2022/07/29 06:32:43;;;;;;;6.50;4.28;;;;;;;27.25;nan;-24571.41;5076811;28;20191;-64
2022/07/29 06:35:09;;;;;;;5.55;3.80;;;;;;;27.55;nan;-24579.38;5077696;28;20207;-65
2022/07/29 06:37:35;;;;;;;6.63;4.10;;;;;;;27.73;nan;-24584.31;5069988;28;20570;-65
2022/07/29 06:42:44;;;;;;;4.40;3.65;;;;;;;27.01;nan;-24564.84;5071946;28;20165;-68
2022/07/29 06:45:11;;;;;;;6.40;3.88;;;;;;;26.68;nan;-24555.78;5071548;28;20177;-66
2022/07/29 06:47:36;;;;;;;6.38;3.97;;;;;;;27.02;nan;-24564.97;5071560;28;20621;-66
2022/07/29 06:50:03;;;;;;;5.78;4.03;;;;;;;27.59;nan;-24580.59;5073734;28;20192;-64
2022/07/29 06:52:29;;;;;;;8.60;4.10;;;;;;;27.83;nan;-24586.91;5072320;28;20230;-65
2022/07/29 06:54:54;;;;;;;6.53;4.25;;;;;;;28.02;nan;-24592.25;5071492;28;20181;-65
2022/07/29 06:57:21;;;;;;;6.10;4.13;;;;;;;28.38;nan;-24601.84;5071001;28;20669;-63
2022/07/29 06:59:47;;;;;;;7.07;4.20;;;;;;;28.45;nan;-24603.75;5076613;28;20205;-63
2022/07/29 07:02:13;;;;;;;7.47;4.10;;;;;;;28.42;nan;-24602.94;5073497;28;20174;-63
2022/07/29 07:04:38;;;;;;;8.20;5.45;;;;;;;28.42;nan;-24602.94;5071543;28;20256;-63
2022/07/29 07:07:04;;;;;;;6.97;4.43;;;;;;;28.36;nan;-24601.28;5073299;28;20264;-65
2022/07/29 07:09:29;;;;;;;7.05;4.50;;;;;;;28.41;nan;-24602.66;5072367;28;20178;-64
2022/07/29 07:11:55;;;;;;;6.53;4.40;;;;;;;28.61;nan;-24607.97;5073827;28;20169;-62
2022/07/29 07:14:20;;;;;;;6.15;4.03;;;;;;;28.81;nan;-24613.59;5074550;28;20560;-63
2022/07/29 07:16:46;;;;;;;5.57;3.63;;;;;;;28.93;nan;-24616.88;5079162;28;20200;-65
2022/07/29 07:19:11;;;;;;;8.20;3.92;;;;;;;29.14;nan;-24622.34;5073171;28;20295;-63
2022/07/29 07:21:37;;;;;;;5.82;3.88;;;;;;;29.13;nan;-24622.19;5071468;28;20640;-63
2022/07/29 07:24:02;;;;;;;6.70;4.10;;;;;;;29.08;nan;-24620.69;5077038;28;20174;-64
2022/07/29 07:26:28;;;;;;;7.07;4.03;;;;;;;29.46;nan;-24631.06;5076759;28;20177;-64
2022/07/29 07:28:53;;;;;;;8.23;4.30;;;;;;;29.26;nan;-24625.75;5072025;28;20190;-64
2022/07/29 07:31:19;;;;;;;6.80;4.03;;;;;;;29.50;nan;-24632.19;5073909;28;20560;-65
2022/07/29 07:33:45;;;;;;;6.78;3.78;;;;;;;28.51;nan;-24605.38;5075381;28;20538;-65
2022/07/29 07:36:10;;;;;;;6.22;4.07;;;;;;;29.12;nan;-24621.78;5070716;28;20180;-65
2022/07/29 07:38:36;;;;;;;5.25;3.90;;;;;;;28.88;nan;-24615.38;5071092;28;20193;-69
2022/07/29 07:41:01;;;;;;;7.43;4.15;;;;;;;23.14;nan;-24459.38;5076051;28;20567;-65
2022/07/29 07:43:27;;;;;;;8.07;4.25;;;;;;;28.68;nan;-24610.03;5071204;28;20181;-67
2022/07/29 07:45:52;;;;;;;8.43;4.47;;;;;;;28.62;nan;-24608.41;5073594;28;20178;-65
2022/07/29 07:48:18;;;;;;;6.72;4.10;;;;;;;28.43;nan;-24603.19;5073714;28;20178;-66
2022/07/29 07:50:44;;;;;;;7.75;4.53;;;;;;;28.55;nan;-24606.47;5081650;28;20514;-66
2022/07/29 07:53:09;;;;;;;6.10;3.92;;;;;;;28.98;nan;-24618.25;5074572;28;20252;-66
2022/07/29 07:55:40;;;;;;;5.60;3.72;;;;;;;29.63;nan;-24635.72;5074820;28;20220;-67
2022/07/29 07:58:06;;;;;;;6.43;4.28;;;;;;;29.58;nan;-24634.34;5074339;28;20532;-65
2022/07/29 08:00:32;;;;;;;5.38;3.47;;;;;;;29.48;nan;-24631.50;5074922;28;20215;-66
2022/07/29 08:02:57;;;;;;;5.97;4.20;;;;;;;30.02;nan;-24646.09;5074686;28;20561;-66
2022/07/29 08:05:23;;;;;;;5.93;4.03;;;;;;;29.92;nan;-24643.38;5074335;28;20150;-65
2022/07/29 08:07:48;;;;;;;5.72;3.60;;;;;;;29.68;nan;-24636.94;5074661;28;20605;-67
2022/07/29 08:10:51;;;;;;;6.03;4.05;;;;;;;29.49;nan;-24631.91;5074589;28;20166;-66
2022/07/29 08:13:05;;;;;;;6.13;3.65;;;;;;;29.25;nan;-24625.34;5074215;28;20261;-64
2022/07/29 08:15:31;;;;;;;3.92;3.08;;;;;;;28.61;nan;-24608.13;5074710;28;20177;-64
2022/07/29 08:17:56;;;;;;;6.05;4.05;;;;;;;29.45;nan;-24630.66;5073987;28;20169;-66
2022/07/29 08:20:22;;;;;;;5.30;3.40;;;;;;;29.61;nan;-24635.19;5074410;28;20688;-64
2022/07/29 08:22:47;;;;;;;4.90;3.45;;;;;;;29.56;nan;-24633.81;5073271;28;20173;-65
2022/07/29 08:25:12;;;;;;;4.82;3.50;;;;;;;29.83;nan;-24641.19;5081173;28;20173;-63
2022/07/29 08:27:38;;;;;;;5.50;3.88;;;;;;;28.73;nan;-24611.28;5073976;28;20176;-63
2022/07/29 08:30:04;;;;;;;5.35;3.88;;;;;;;30.03;nan;-24646.38;5074164;28;20270;-63
2022/07/29 08:32:31;;;;;;;5.93;3.95;;;;;;;30.16;nan;-24649.91;5073595;28;20166;-62
2022/07/29 08:34:56;;;;;;;4.25;3.22;;;;;;;29.55;nan;-24633.41;5075917;28;20350;-64
2022/07/29 08:37:22;;;;;;;4.70;3.33;;;;;;;30.27;nan;-24652.91;5074081;28;20699;-63
2022/07/29 08:39:47;;;;;;;4.40;2.92;;;;;;;29.76;nan;-24639.28;5073842;28;20682;-64
2022/07/29 08:42:13;;;;;;;4.50;2.90;;;;;;;29.94;nan;-24643.91;5074359;28;20165;-64
2022/07/29 08:44:39;;;;;;;4.13;2.97;;;;;;;30.12;nan;-24648.81;5074174;28;20182;-65
2022/07/29 08:47:05;;;;;;;4.35;3.20;;;;;;;30.01;nan;-24645.81;5074028;28;20170;-64
2022/07/29 08:49:33;;;;;;;12.15;3.90;;;;;;;29.64;nan;-24636.00;5073757;28;20166;-65
2022/07/29 08:51:59;;;;;;;3.88;3.00;;;;;;;29.94;nan;-24643.91;5073827;28;20168;-65
2022/07/29 08:54:25;;;;;;;6.22;3.17;;;;;;;30.07;nan;-24647.44;5074023;28;20220;-63
2022/07/29 08:56:51;;;;;;;5.78;3.50;;;;;;;30.16;nan;-24649.91;5073835;28;20522;-65
2022/07/29 08:59:20;;;;;;;3.42;2.80;;;;;;;29.94;nan;-24643.91;5072803;28;20198;-64
2022/07/29 09:01:46;;;;;;;4.75;2.92;;;;;;;29.89;nan;-24642.69;5073224;28;20998;-63
2022/07/29 09:04:14;;;;;;;4.18;3.10;;;;;;;30.42;nan;-24656.84;5073706;28;20644;-65
2022/07/29 09:06:43;;;;;;;6.53;2.80;;;;;;;30.84;nan;-24668.31;5072690;28;20158;-65
2022/07/29 09:09:09;;;;;;;4.75;3.05;;;;;;;30.66;nan;-24663.41;5073299;28;20203;-64
2022/07/29 09:11:35;;;;;;;4.22;2.88;;;;;;;30.62;nan;-24662.31;5073237;28;20172;-64
2022/07/29 09:14:01;;;;;;;4.57;2.95;;;;;;;30.43;nan;-24657.13;5073113;28;20724;-63
2022/07/29 09:16:44;;;;;;;3.35;2.55;;;;;;;30.68;nan;-24663.94;5074410;28;20180;-63
2022/07/29 09:19:28;;;;;;;4.28;2.80;;;;;;;31.04;nan;-24673.59;5072855;28;20547;-64
2022/07/29 09:21:57;;;;;;;3.42;2.50;;;;;;;31.28;nan;-24680.00;5073016;28;20589;-64
2022/07/29 09:24:24;;;;;;;3.47;2.80;;;;;;;31.56;nan;-24687.75;5073304;28;20212;-64
2022/07/29 09:26:50;;;;;;;3.78;2.88;;;;;;;31.92;nan;-24697.41;5073281;28;20246;-64
2022/07/29 09:29:20;;;;;;;3.90;2.90;;;;;;;31.72;nan;-24691.97;5071484;28;20220;-65
2022/07/29 09:31:49;;;;;;;3.58;2.72;;;;;;;31.11;nan;-24675.53;5072795;28;20530;-63
2022/07/29 09:34:17;;;;;;;3.53;2.70;;;;;;;30.79;nan;-24666.94;5073147;28;20256;-65
2022/07/29 09:36:48;;;;;;;3.97;2.88;;;;;;;31.27;nan;-24679.72;5072460;28;20173;-63
2022/07/29 09:39:14;;;;;;;3.60;2.70;;;;;;;31.10;nan;-24675.38;5072441;28;20235;-64
2022/07/29 09:41:54;;;;;;;4.22;2.50;;;;;;;31.25;nan;-24679.31;5072588;28;20173;-64
2022/07/29 09:44:21;;;;;;;5.20;3.50;;;;;;;31.15;nan;-24676.59;5072999;28;20190;-64
2022/07/29 09:47:08;;;;;;;4.20;2.97;;;;;;;30.84;nan;-24668.16;5072855;28;20608;-64
2022/07/29 09:49:34;;;;;;;3.92;2.60;;;;;;;31.47;nan;-24685.31;5072425;28;20170;-64
2022/07/29 09:52:08;;;;;;;3.92;2.92;;;;;;;31.96;nan;-24698.50;5072576;28;20180;-65
2022/07/29 09:54:38;;;;;;;4.60;2.72;;;;;;;31.82;nan;-24694.56;5072306;28;20169;-65
2022/07/29 09:57:06;;;;;;;3.80;2.78;;;;;;;31.90;nan;-24696.72;5071503;28;20260;-67
2022/07/29 09:59:33;;;;;;;3.63;2.85;;;;;;;32.07;nan;-24701.34;5072199;28;20185;-65
2022/07/29 10:01:58;;;;;;;3.33;2.58;;;;;;;31.97;nan;-24698.63;5072337;28;20157;-65
2022/07/29 10:04:36;;;;;;;4.32;2.95;;;;;;;32.11;nan;-24702.44;5072090;28;20169;-64
2022/07/29 10:07:03;;;;;;;4.35;2.78;;;;;;;32.09;nan;-24701.88;5072456;28;20222;-65
2022/07/29 10:09:29;;;;;;;4.38;3.00;;;;;;;31.78;nan;-24693.59;5071614;28;20173;-65
2022/07/29 10:12:09;;;;;;;3.00;2.50;;;;;;;31.90;nan;-24696.72;5072395;28;20215;-65
2022/07/29 10:14:35;;;;;;;4.25;2.55;;;;;;;32.02;nan;-24699.97;5072448;28;20189;-64
2022/07/29 10:17:01;;;;;;;4.43;2.60;;;;;;;31.85;nan;-24695.38;5072174;28;20632;-64
2022/07/29 10:19:31;;;;;;;3.72;2.80;;;;;;;31.82;nan;-24694.69;5071939;28;20224;-63
2022/07/29 10:21:59;;;;;;;4.45;3.40;;;;;;;32.11;nan;-24702.44;5071935;28;20250;-65
2022/07/29 10:24:27;;;;;;;3.30;2.67;;;;;;;32.57;nan;-24714.66;5071721;28;20172;-67
2022/07/29 10:26:59;;;;;;;6.97;2.42;;;;;;;32.74;nan;-24719.25;5072373;28;20169;-64
2022/07/29 10:29:25;;;;;;;3.28;2.47;;;;;;;32.34;nan;-24708.69;5071843;28;20197;-65
2022/07/29 10:32:07;;;;;;;4.32;2.90;;;;;;;32.15;nan;-24703.53;5071572;28;20153;-64
2022/07/29 10:34:51;;;;;;;3.92;2.92;;;;;;;32.63;nan;-24716.28;5071760;28;20168;-65
2022/07/29 10:37:25;;;;;;;4.07;2.55;;;;;;;32.50;nan;-24712.88;5072059;28;20166;-64
2022/07/29 10:43:00;;;;;;;4.32;2.78;;;;;;;32.21;nan;-24705.00;5071712;28;20295;-65
2022/07/29 10:45:26;;;;;;;3.55;2.58;;;;;;;31.44;nan;-24684.34;5071798;28;20165;-64
2022/07/29 10:48:04;;;;;;;5.03;2.80;;;;;;;31.91;nan;-24697.13;5071550;28;20193;-65
2022/07/29 10:50:55;;;;;;;4.53;2.88;;;;;;;32.47;nan;-24712.06;5071725;28;20160;-65
2022/07/29 10:53:44;;;;;;;4.03;2.83;;;;;;;32.57;nan;-24714.78;5071654;28;20207;-64
2022/07/29 10:56:34;;;;;;;3.58;2.72;;;;;;;32.58;nan;-24715.06;5071527;28;20170;-64
2022/07/29 10:59:19;;;;;;;3.92;2.90;;;;;;;33.08;nan;-24728.47;5071422;28;20200;-65
2022/07/29 11:01:46;;;;;;;4.22;2.75;;;;;;;32.88;nan;-24722.94;5071597;28;20218;-64
2022/07/29 11:04:11;;;;;;;3.47;2.72;;;;;;;32.99;nan;-24726.03;5073745;28;20181;-63
2022/07/29 11:07:05;;;;;;;3.53;2.53;;;;;;;33.08;nan;-24728.34;5070819;28;20188;-65
2022/07/29 11:09:31;;;;;;;3.25;2.60;;;;;;;32.16;nan;-24703.78;5071168;28;20169;-64
2022/07/29 11:11:59;;;;;;;3.53;2.60;;;;;;;;;;5071574;28;20200;-64
2022/07/29 11:14:55;;;;;;;4.05;2.72;;;;;;;32.06;nan;-24700.94;5073626;28;20354;-63
2022/07/29 11:17:21;;;;;;;3.47;2.60;;;;;;;31.99;nan;-24699.16;5055325;28;20578;-63
2022/07/29 11:19:46;;;;;;;3.60;2.60;;;;;;;32.33;nan;-24708.41;5071085;28;20208;-64
2022/07/29 11:22:32;;;;;;;4.40;3.00;;;;;;;32.56;nan;-24714.38;5071071;28;20276;-65
2022/07/29 11:25:17;;;;;;;4.30;3.00;;;;;;;32.86;nan;-24722.50;5057467;28;20259;-66
2022/07/29 11:27:44;;;;;;;3.58;2.75;;;;;;;32.90;nan;-24723.59;5074309;28;20176;-62
2022/07/29 11:30:11;;;;;;;5.35;3.08;;;;;;;33.23;nan;-24732.41;5073492;28;20551;-64
2022/07/29 11:32:40;;;;;;;7.55;3.17;;;;;;;33.39;nan;-24736.75;5071220;28;20185;-63
2022/07/29 11:35:17;;;;;;;3.58;2.78;;;;;;;33.59;nan;-24742.03;5071141;28;20220;-64
2022/07/29 11:37:42;;;;;;;3.60;2.65;;;;;;;33.26;nan;-24733.34;5075909;28;20271;-64
2022/07/29 11:40:10;;;;;;;3.33;2.88;;;;;;;32.58;nan;-24714.91;5076990;28;20671;-66
2022/07/29 11:42:37;;;;;;;3.50;2.83;;;;;;;32.70;nan;-24718.19;5077199;28;20180;-64
2022/07/29 11:45:06;;;;;;;3.90;2.70;;;;;;;32.50;nan;-24712.88;5091848;28;20211;-64
2022/07/29 11:47:36;;;;;;;4.82;2.95;;;;;;;32.44;nan;-24711.25;5068687;28;20244;-64
2022/07/29 11:50:03;;;;;;;3.60;2.90;;;;;;;32.36;nan;-24709.09;5076120;28;20215;-64
2022/07/29 11:52:42;;;;;;;3.85;2.97;;;;;;;32.05;nan;-24700.66;5076507;28;20192;-64
2022/07/29 11:55:10;;;;;;;4.82;2.95;;;;;;;32.14;nan;-24703.13;5075432;28;20223;-64
2022/07/29 11:57:36;;;;;;;3.75;3.00;;;;;;;27.52;nan;-24578.56;5073833;28;20235;-64
2022/07/29 12:00:08;;;;;;;4.30;2.92;;;;;;;32.51;nan;-24713.03;5070924;28;21682;-64
2022/07/29 12:02:42;;;;;;;4.22;2.50;;;;;;;32.48;nan;-24712.19;5073295;28;20173;-63
2022/07/29 12:05:10;;;;;;;3.22;2.78;;;;;;;32.94;nan;-24724.69;5076912;28;20168;-66
2022/07/29 12:07:36;;;;;;;4.05;2.78;;;;;;;32.70;nan;-24718.19;5074909;28;20637;-65
2022/07/29 12:10:03;;;;;;;4.10;2.65;;;;;;;32.58;nan;-24714.91;5073197;28;20263;-65
2022/07/29 12:12:29;;;;;;;4.70;3.03;;;;;;;32.52;nan;-24713.44;5072623;28;20223;-64
2022/07/29 12:14:55;;;;;;;5.18;2.90;;;;;;;32.22;nan;-24705.41;5073557;28;20169;-65
2022/07/29 12:17:32;;;;;;;3.47;2.88;;;;;;;32.56;nan;-24714.38;5077504;28;20770;-66
2022/07/29 12:19:59;;;;;;;3.08;2.78;;;;;;;33.00;nan;-24726.31;5066474;28;20670;-64
2022/07/29 12:22:48;;;;;;;3.83;2.70;;;;;;;33.32;nan;-24734.84;5091454;28;20632;-66
2022/07/29 12:25:15;;;;;;;3.25;2.58;;;;;;;33.19;nan;-24731.47;5073057;28;20180;-67
2022/07/29 12:27:43;;;;;;;3.45;2.80;;;;;;;32.01;nan;-24699.72;5070436;28;20706;-67
2022/07/29 12:30:15;;;;;;;4.50;2.65;;;;;;;32.85;nan;-24722.25;5070158;28;20173;-66
2022/07/29 12:32:49;;;;;;;3.88;2.80;;;;;;;32.86;nan;-24722.66;5070801;28;20169;-62
2022/07/29 12:35:17;;;;;;;4.32;2.70;;;;;;;33.20;nan;-24731.72;5073577;28;20176;-63
2022/07/29 12:37:44;;;;;;;3.30;2.35;;;;;;;33.53;nan;-24740.53;5073055;28;20169;-65
2022/07/29 12:40:13;;;;;;;2.92;2.40;;;;;;;33.58;nan;-24741.75;5074992;28;20312;-63
2022/07/29 12:42:39;;;;;;;3.50;2.60;;;;;;;33.80;nan;-24747.72;5079978;28;20185;-64
2022/07/29 12:45:05;;;;;;;3.65;2.47;;;;;;;34.06;nan;-24754.75;5076366;28;20201;-65
2022/07/29 12:47:31;;;;;;;3.13;2.58;;;;;;;34.00;nan;-24752.97;5076922;28;20177;-66
2022/07/29 12:50:14;;;;;;;3.45;2.92;;;;;;;33.63;nan;-24743.09;5077952;28;20689;-65
2022/07/29 12:52:39;;;;;;;3.75;2.83;;;;;;;33.34;nan;-24735.41;5056685;28;20257;-63
2022/07/29 12:55:05;;;;;;;3.65;2.60;;;;;;;33.50;nan;-24739.59;5076076;28;20604;-63
2022/07/29 12:57:31;;;;;;;3.03;2.30;;;;;;;33.05;nan;-24727.66;5077254;28;20181;-66
2022/07/29 13:00:10;;;;;;;5.45;2.60;;;;;;;33.51;nan;-24739.84;5075990;28;20566;-63
2022/07/29 13:02:37;;;;;;;3.75;2.55;;;;;;;33.60;nan;-24742.28;5075658;28;20657;-65
2022/07/29 13:05:04;;;;;;;3.80;2.70;;;;;;;33.66;nan;-24744.06;5073768;28;20640;-63
2022/07/29 13:07:32;;;;;;;3.53;2.70;;;;;;;34.20;nan;-24758.25;5073338;28;20469;-65
2022/07/29 13:10:19;;;;;;;3.50;2.63;;;;;;;34.12;nan;-24756.38;5073022;28;20173;-65
2022/07/29 13:13:09;;;;;;;3.65;2.65;;;;;;;33.79;nan;-24747.31;5075883;28;20695;-64
2022/07/29 13:15:39;;;;;;;3.38;2.50;;;;;;;33.66;nan;-24744.06;5078596;28;20204;-67
2022/07/29 13:18:24;;;;;;;3.97;2.75;;;;;;;33.71;nan;-24745.41;5075036;28;20189;-65
2022/07/29 13:20:50;;;;;;;4.32;2.70;;;;;;;33.20;nan;-24731.72;5079725;28;20513;-65
2022/07/29 13:23:16;;;;;;;4.72;2.97;;;;;;;33.27;nan;-24733.63;5077348;28;20182;-66
2022/07/29 13:25:41;;;;;;;3.97;2.90;;;;;;;32.91;nan;-24723.72;5078979;28;20177;-64
2022/07/29 13:28:06;;;;;;;3.92;3.00;;;;;;;32.69;nan;-24718.03;5076304;28;20169;-63
2022/07/29 13:30:32;;;;;;;3.45;2.70;;;;;;;32.67;nan;-24717.38;5075711;28;20629;-63
2022/07/29 13:32:58;;;;;;;4.47;2.95;;;;;;;32.81;nan;-24721.28;5078412;28;20260;-63
2022/07/29 13:35:23;;;;;;;4.07;2.95;;;;;;;32.75;nan;-24719.53;5076212;28;20181;-65
2022/07/29 13:37:49;;;;;;;3.85;3.00;;;;;;;33.17;nan;-24730.78;5071448;28;20178;-64
2022/07/29 13:40:15;;;;;;;4.25;3.08;;;;;;;33.35;nan;-24735.66;5077977;28;20207;-64
2022/07/29 13:42:41;;;;;;;3.47;2.80;;;;;;;33.36;nan;-24735.94;5076819;28;20229;-65
2022/07/29 13:45:08;;;;;;;6.50;3.03;;;;;;;33.72;nan;-24745.53;5078422;28;20186;-64
2022/07/29 13:47:33;;;;;;;6.45;3.20;;;;;;;33.79;nan;-24747.31;5077162;28;20503;-65
2022/07/29 13:50:00;;;;;;;4.10;3.00;;;;;;;33.98;nan;-24752.44;5077433;28;20206;-63
2022/07/29 13:52:26;;;;;;;6.20;3.28;;;;;;;33.89;nan;-24750.16;5077718;28;20173;-63
2022/07/29 13:54:51;;;;;;;4.15;2.63;;;;;;;34.05;nan;-24754.47;5077639;28;20533;-64
2022/07/29 13:57:17;;;;;;;5.03;3.10;;;;;;;34.11;nan;-24755.97;5074680;28;20166;-65
2022/07/29 13:59:42;;;;;;;3.28;2.70;;;;;;;33.77;nan;-24746.75;5076560;28;20299;-65
2022/07/29 14:02:09;;;;;;;4.22;2.70;;;;;;;33.60;nan;-24742.28;5072495;28;20177;-63
2022/07/29 14:04:35;;;;;;;3.72;3.13;;;;;;;33.89;nan;-24750.16;5075096;28;20174;-63
2022/07/29 14:07:01;;;;;;;7.57;2.80;;;;;;;33.75;nan;-24746.38;5074233;28;20180;-64